Ceylon, Canada
Current Conditions -  °F | °C
As of 6:00 AM on Friday 21 Nov 2014 (Local Time) from CYQR Reporting Station
Broken Clouds Broken Clouds  
Wind Chill: 17°   Ceiling: 12000
Heat Index: 27°   Visibility: 15mi
Dew Point: 25°   Wind: 10mph
Humidity: 93%   Direction: 180°S
Pressure: 29.51"   Gusts: NA
Location:  49.45°N, 104.6°W
Report Text: CYQR 211200Z 18009KT 15SM BKN120 M03/M04 A2951 RMK AC7 SLP028
Loading
Personal Weather Stations






























Interactive Weather Map New forecast layout! Learn more

10-Day Weather Forecast

Advertisements
Track Severe Weather on mobile